sensor_id;sensor_type;location;lat;lon;timestamp;P1;durP1;ratioP1;P2;durP2;ratioP2
58372;SDS011;44177;43.356;27.672;2023-06-14T00:01:15;1.17;;;1.02;;
58372;SDS011;44177;43.356;27.672;2023-06-14T00:03:42;2.95;;;1.58;;
58372;SDS011;44177;43.356;27.672;2023-06-14T00:06:07;0.90;;;0.80;;
58372;SDS011;44177;43.356;27.672;2023-06-14T00:08:33;1.30;;;1.20;;
58372;SDS011;44177;43.356;27.672;2023-06-14T00:10:58;1.13;;;1.02;;
58372;SDS011;44177;43.356;27.672;2023-06-14T00:13:24;2.58;;;1.40;;
58372;SDS011;44177;43.356;27.672;2023-06-14T00:15:49;0.68;;;0.68;;
58372;SDS011;44177;43.356;27.672;2023-06-14T00:18:18;1.30;;;1.00;;
58372;SDS011;44177;43.356;27.672;2023-06-14T00:20:43;1.25;;;1.10;;
58372;SDS011;44177;43.356;27.672;2023-06-14T00:23:09;1.38;;;1.25;;
58372;SDS011;44177;43.356;27.672;2023-06-14T00:25:35;1.15;;;0.77;;
58372;SDS011;44177;43.356;27.672;2023-06-14T00:28:00;1.58;;;0.93;;
58372;SDS011;44177;43.356;27.672;2023-06-14T00:30:26;1.08;;;0.82;;
58372;SDS011;44177;43.356;27.672;2023-06-14T00:32:55;0.93;;;0.93;;
58372;SDS011;44177;43.356;27.672;2023-06-14T00:35:21;1.92;;;1.23;;
58372;SDS011;44177;43.356;27.672;2023-06-14T00:37:46;1.25;;;1.15;;
58372;SDS011;44177;43.356;27.672;2023-06-14T00:40:12;1.30;;;0.93;;
58372;SDS011;44177;43.356;27.672;2023-06-14T00:42:37;1.85;;;1.10;;
58372;SDS011;44177;43.356;27.672;2023-06-14T00:45:03;0.77;;;0.70;;
58372;SDS011;44177;43.356;27.672;2023-06-14T00:47:29;1.08;;;1.00;;
58372;SDS011;44177;43.356;27.672;2023-06-14T00:49:55;1.05;;;1.00;;
58372;SDS011;44177;43.356;27.672;2023-06-14T00:52:24;1.15;;;1.10;;
58372;SDS011;44177;43.356;27.672;2023-06-14T00:54:49;0.88;;;0.88;;
58372;SDS011;44177;43.356;27.672;2023-06-14T00:57:15;1.38;;;1.13;;
58372;SDS011;44177;43.356;27.672;2023-06-14T00:59:45;1.67;;;1.58;;
58372;SDS011;44177;43.356;27.672;2023-06-14T01:02:11;1.05;;;0.90;;
58372;SDS011;44177;43.356;27.672;2023-06-14T01:04:39;1.10;;;1.00;;
58372;SDS011;44177;43.356;27.672;2023-06-14T01:15:24;1.52;;;1.00;;
58372;SDS011;44177;43.356;27.672;2023-06-14T01:17:51;1.35;;;1.25;;
58372;SDS011;44177;43.356;27.672;2023-06-14T01:20:21;2.63;;;1.20;;
58372;SDS011;44177;43.356;27.672;2023-06-14T01:22:50;1.20;;;1.10;;
58372;SDS011;44177;43.356;27.672;2023-06-14T01:25:18;1.52;;;1.42;;
58372;SDS011;44177;43.356;27.672;2023-06-14T01:27:55;2.53;;;1.42;;
58372;SDS011;44177;43.356;27.672;2023-06-14T01:30:24;1.40;;;1.08;;
58372;SDS011;44177;43.356;27.672;2023-06-14T01:32:51;3.05;;;0.85;;
58372;SDS011;44177;43.356;27.672;2023-06-14T01:35:19;1.13;;;1.08;;
58372;SDS011;44177;43.356;27.672;2023-06-14T01:37:46;0.75;;;0.75;;
58372;SDS011;44177;43.356;27.672;2023-06-14T01:40:12;0.98;;;0.90;;
58372;SDS011;44177;43.356;27.672;2023-06-14T01:42:40;1.08;;;0.95;;
58372;SDS011;44177;43.356;27.672;2023-06-14T01:45:06;1.40;;;0.88;;
58372;SDS011;44177;43.356;27.672;2023-06-14T01:47:33;1.30;;;1.20;;
58372;SDS011;44177;43.356;27.672;2023-06-14T01:50:00;1.73;;;1.20;;
58372;SDS011;44177;43.356;27.672;2023-06-14T01:52:25;1.13;;;1.02;;
58372;SDS011;44177;43.356;27.672;2023-06-14T01:54:50;1.13;;;0.90;;
58372;SDS011;44177;43.356;27.672;2023-06-14T01:57:16;1.50;;;1.40;;
58372;SDS011;44177;43.356;27.672;2023-06-14T01:59:42;1.30;;;1.20;;
58372;SDS011;44177;43.356;27.672;2023-06-14T02:02:07;2.00;;;1.17;;
58372;SDS011;44177;43.356;27.672;2023-06-14T02:04:33;1.55;;;1.45;;
58372;SDS011;44177;43.356;27.672;2023-06-14T02:06:58;1.85;;;1.67;;
58372;SDS011;44177;43.356;27.672;2023-06-14T02:09:24;1.05;;;0.95;;
58372;SDS011;44177;43.356;27.672;2023-06-14T02:11:50;1.40;;;1.20;;
58372;SDS011;44177;43.356;27.672;2023-06-14T02:14:15;1.42;;;1.27;;
58372;SDS011;44177;43.356;27.672;2023-06-14T02:16:42;1.48;;;1.27;;
58372;SDS011;44177;43.356;27.672;2023-06-14T02:19:13;1.70;;;1.27;;
58372;SDS011;44177;43.356;27.672;2023-06-14T02:21:42;1.33;;;1.23;;
58372;SDS011;44177;43.356;27.672;2023-06-14T02:24:08;2.50;;;1.48;;
58372;SDS011;44177;43.356;27.672;2023-06-14T02:26:33;2.60;;;1.65;;
58372;SDS011;44177;43.356;27.672;2023-06-14T02:28:59;4.15;;;0.95;;
58372;SDS011;44177;43.356;27.672;2023-06-14T02:31:25;4.32;;;1.75;;
58372;SDS011;44177;43.356;27.672;2023-06-14T02:33:50;2.08;;;1.75;;
58372;SDS011;44177;43.356;27.672;2023-06-14T02:36:16;1.40;;;1.13;;
58372;SDS011;44177;43.356;27.672;2023-06-14T02:38:41;1.60;;;1.33;;
58372;SDS011;44177;43.356;27.672;2023-06-14T02:41:07;2.17;;;1.83;;
58372;SDS011;44177;43.356;27.672;2023-06-14T02:43:32;1.30;;;1.20;;
58372;SDS011;44177;43.356;27.672;2023-06-14T02:45:58;1.95;;;1.67;;
58372;SDS011;44177;43.356;27.672;2023-06-14T02:48:23;1.52;;;1.35;;
58372;SDS011;44177;43.356;27.672;2023-06-14T02:50:49;1.70;;;1.58;;
58372;SDS011;44177;43.356;27.672;2023-06-14T02:53:16;2.28;;;1.98;;
58372;SDS011;44177;43.356;27.672;2023-06-14T02:55:42;1.85;;;1.67;;
58372;SDS011;44177;43.356;27.672;2023-06-14T02:58:07;1.90;;;1.70;;
58372;SDS011;44177;43.356;27.672;2023-06-14T03:00:33;2.20;;;1.77;;
58372;SDS011;44177;43.356;27.672;2023-06-14T03:03:00;2.92;;;1.73;;
58372;SDS011;44177;43.356;27.672;2023-06-14T03:05:26;3.75;;;1.77;;
58372;SDS011;44177;43.356;27.672;2023-06-14T03:07:53;2.20;;;1.55;;
58372;SDS011;44177;43.356;27.672;2023-06-14T03:10:19;2.60;;;1.50;;
58372;SDS011;44177;43.356;27.672;2023-06-14T03:12:44;1.90;;;1.70;;
58372;SDS011;44177;43.356;27.672;2023-06-14T03:15:10;1.95;;;1.60;;
58372;SDS011;44177;43.356;27.672;2023-06-14T03:17:38;3.30;;;2.13;;
58372;SDS011;44177;43.356;27.672;2023-06-14T03:20:06;2.80;;;1.50;;
58372;SDS011;44177;43.356;27.672;2023-06-14T03:22:33;2.28;;;1.80;;
58372;SDS011;44177;43.356;27.672;2023-06-14T03:24:59;1.55;;;1.45;;
58372;SDS011;44177;43.356;27.672;2023-06-14T03:27:25;2.90;;;2.15;;
58372;SDS011;44177;43.356;27.672;2023-06-14T03:29:53;2.80;;;1.95;;
58372;SDS011;44177;43.356;27.672;2023-06-14T03:32:19;7.18;;;2.28;;
58372;SDS011;44177;43.356;27.672;2023-06-14T03:34:44;3.65;;;1.95;;
58372;SDS011;44177;43.356;27.672;2023-06-14T03:37:10;2.75;;;1.70;;
58372;SDS011;44177;43.356;27.672;2023-06-14T03:39:35;3.83;;;1.92;;
58372;SDS011;44177;43.356;27.672;2023-06-14T03:42:01;3.75;;;1.88;;
58372;SDS011;44177;43.356;27.672;2023-06-14T03:44:27;2.10;;;1.90;;
58372;SDS011;44177;43.356;27.672;2023-06-14T03:46:52;3.03;;;2.10;;
58372;SDS011;44177;43.356;27.672;2023-06-14T03:49:18;2.50;;;2.03;;
58372;SDS011;44177;43.356;27.672;2023-06-14T03:51:43;4.13;;;2.20;;
58372;SDS011;44177;43.356;27.672;2023-06-14T03:54:09;3.83;;;2.10;;
58372;SDS011;44177;43.356;27.672;2023-06-14T03:56:35;2.30;;;2.03;;
58372;SDS011;44177;43.356;27.672;2023-06-14T03:59:01;3.30;;;2.25;;
58372;SDS011;44177;43.356;27.672;2023-06-14T04:01:27;3.38;;;2.83;;
58372;SDS011;44177;43.356;27.672;2023-06-14T04:03:57;3.35;;;2.00;;
58372;SDS011;44177;43.356;27.672;2023-06-14T04:06:24;4.40;;;2.53;;
58372;SDS011;44177;43.356;27.672;2023-06-14T04:08:56;3.03;;;1.90;;
58372;SDS011;44177;43.356;27.672;2023-06-14T04:11:22;4.35;;;2.88;;
58372;SDS011;44177;43.356;27.672;2023-06-14T04:13:47;2.47;;;2.05;;
58372;SDS011;44177;43.356;27.672;2023-06-14T04:16:13;3.22;;;2.25;;
58372;SDS011;44177;43.356;27.672;2023-06-14T04:18:39;4.20;;;2.70;;
58372;SDS011;44177;43.356;27.672;2023-06-14T04:21:04;4.43;;;2.55;;
58372;SDS011;44177;43.356;27.672;2023-06-14T04:23:31;2.20;;;2.00;;
58372;SDS011;44177;43.356;27.672;2023-06-14T04:25:57;3.28;;;2.58;;
58372;SDS011;44177;43.356;27.672;2023-06-14T04:28:27;4.40;;;2.38;;
58372;SDS011;44177;43.356;27.672;2023-06-14T04:30:52;3.38;;;2.63;;
58372;SDS011;44177;43.356;27.672;2023-06-14T04:33:18;3.38;;;2.38;;
58372;SDS011;44177;43.356;27.672;2023-06-14T04:35:44;3.28;;;2.38;;
58372;SDS011;44177;43.356;27.672;2023-06-14T04:38:12;4.43;;;1.98;;
58372;SDS011;44177;43.356;27.672;2023-06-14T04:40:37;2.90;;;2.55;;
58372;SDS011;44177;43.356;27.672;2023-06-14T04:43:09;3.78;;;2.72;;
58372;SDS011;44177;43.356;27.672;2023-06-14T04:45:37;5.10;;;2.45;;
58372;SDS011;44177;43.356;27.672;2023-06-14T04:48:02;4.00;;;3.03;;
58372;SDS011;44177;43.356;27.672;2023-06-14T04:50:28;2.50;;;2.17;;
58372;SDS011;44177;43.356;27.672;2023-06-14T04:52:54;2.63;;;2.40;;
58372;SDS011;44177;43.356;27.672;2023-06-14T04:55:20;3.55;;;2.53;;
58372;SDS011;44177;43.356;27.672;2023-06-14T04:57:46;3.35;;;2.10;;
58372;SDS011;44177;43.356;27.672;2023-06-14T05:00:11;3.90;;;2.42;;
58372;SDS011;44177;43.356;27.672;2023-06-14T05:02:37;3.10;;;2.10;;
58372;SDS011;44177;43.356;27.672;2023-06-14T05:05:03;3.25;;;2.22;;
58372;SDS011;44177;43.356;27.672;2023-06-14T05:07:32;2.42;;;2.10;;
58372;SDS011;44177;43.356;27.672;2023-06-14T05:09:58;2.90;;;1.92;;
58372;SDS011;44177;43.356;27.672;2023-06-14T05:12:24;3.65;;;2.13;;
58372;SDS011;44177;43.356;27.672;2023-06-14T05:14:50;4.25;;;2.40;;
58372;SDS011;44177;43.356;27.672;2023-06-14T05:17:15;3.95;;;2.95;;
58372;SDS011;44177;43.356;27.672;2023-06-14T05:19:42;3.22;;;2.13;;
58372;SDS011;44177;43.356;27.672;2023-06-14T05:22:07;2.13;;;1.83;;
58372;SDS011;44177;43.356;27.672;2023-06-14T05:24:32;5.35;;;1.90;;
58372;SDS011;44177;43.356;27.672;2023-06-14T05:26:58;2.40;;;2.03;;
58372;SDS011;44177;43.356;27.672;2023-06-14T05:29:24;2.58;;;1.98;;
58372;SDS011;44177;43.356;27.672;2023-06-14T05:31:49;2.45;;;1.90;;
58372;SDS011;44177;43.356;27.672;2023-06-14T05:34:15;2.65;;;2.30;;
58372;SDS011;44177;43.356;27.672;2023-06-14T05:36:40;2.35;;;1.85;;
58372;SDS011;44177;43.356;27.672;2023-06-14T05:39:06;3.70;;;2.00;;
58372;SDS011;44177;43.356;27.672;2023-06-14T05:41:31;2.78;;;1.85;;
58372;SDS011;44177;43.356;27.672;2023-06-14T05:43:57;3.83;;;2.10;;
58372;SDS011;44177;43.356;27.672;2023-06-14T05:46:23;1.52;;;1.35;;
58372;SDS011;44177;43.356;27.672;2023-06-14T05:48:53;3.22;;;1.85;;
58372;SDS011;44177;43.356;27.672;2023-06-14T05:51:19;1.67;;;1.45;;
58372;SDS011;44177;43.356;27.672;2023-06-14T05:53:45;2.25;;;2.00;;
58372;SDS011;44177;43.356;27.672;2023-06-14T05:56:11;2.28;;;2.00;;
58372;SDS011;44177;43.356;27.672;2023-06-14T05:58:37;2.78;;;1.60;;
58372;SDS011;44177;43.356;27.672;2023-06-14T06:01:03;2.15;;;1.50;;
58372;SDS011;44177;43.356;27.672;2023-06-14T06:03:28;2.72;;;1.95;;
58372;SDS011;44177;43.356;27.672;2023-06-14T06:05:57;1.65;;;1.55;;
58372;SDS011;44177;43.356;27.672;2023-06-14T06:08:23;2.25;;;1.60;;
58372;SDS011;44177;43.356;27.672;2023-06-14T06:10:48;2.50;;;2.05;;
58372;SDS011;44177;43.356;27.672;2023-06-14T06:13:14;1.75;;;1.17;;
58372;SDS011;44177;43.356;27.672;2023-06-14T06:15:40;2.60;;;1.48;;
58372;SDS011;44177;43.356;27.672;2023-06-14T06:18:06;1.52;;;1.42;;
58372;SDS011;44177;43.356;27.672;2023-06-14T06:20:31;1.48;;;1.38;;
58372;SDS011;44177;43.356;27.672;2023-06-14T06:22:57;1.67;;;1.45;;
58372;SDS011;44177;43.356;27.672;2023-06-14T06:25:23;1.50;;;1.40;;
58372;SDS011;44177;43.356;27.672;2023-06-14T06:27:51;0.88;;;0.88;;
58372;SDS011;44177;43.356;27.672;2023-06-14T06:30:21;1.20;;;1.10;;
58372;SDS011;44177;43.356;27.672;2023-06-14T06:32:46;1.63;;;1.08;;
58372;SDS011;44177;43.356;27.672;2023-06-14T06:35:12;1.10;;;1.00;;
58372;SDS011;44177;43.356;27.672;2023-06-14T06:37:38;0.90;;;0.90;;
58372;SDS011;44177;43.356;27.672;2023-06-14T06:40:04;1.88;;;1.05;;
58372;SDS011;44177;43.356;27.672;2023-06-14T06:42:31;1.27;;;1.05;;
58372;SDS011;44177;43.356;27.672;2023-06-14T06:44:57;0.80;;;0.80;;
58372;SDS011;44177;43.356;27.672;2023-06-14T06:47:22;1.20;;;1.10;;
58372;SDS011;44177;43.356;27.672;2023-06-14T06:49:48;0.95;;;0.95;;
58372;SDS011;44177;43.356;27.672;2023-06-14T06:52:13;1.20;;;1.08;;
58372;SDS011;44177;43.356;27.672;2023-06-14T06:54:39;1.58;;;0.88;;
58372;SDS011;44177;43.356;27.672;2023-06-14T06:57:05;0.70;;;0.70;;
58372;SDS011;44177;43.356;27.672;2023-06-14T06:59:31;1.85;;;0.70;;
58372;SDS011;44177;43.356;27.672;2023-06-14T07:01:56;1.15;;;0.85;;
58372;SDS011;44177;43.356;27.672;2023-06-14T07:04:22;0.68;;;0.65;;
58372;SDS011;44177;43.356;27.672;2023-06-14T07:06:47;1.60;;;0.80;;
58372;SDS011;44177;43.356;27.672;2023-06-14T07:09:13;0.57;;;0.57;;
58372;SDS011;44177;43.356;27.672;2023-06-14T07:11:40;1.00;;;0.90;;
58372;SDS011;44177;43.356;27.672;2023-06-14T07:14:06;2.22;;;0.80;;
58372;SDS011;44177;43.356;27.672;2023-06-14T07:16:31;1.17;;;1.08;;
58372;SDS011;44177;43.356;27.672;2023-06-14T07:18:57;1.92;;;0.90;;
58372;SDS011;44177;43.356;27.672;2023-06-14T07:21:23;2.03;;;0.90;;
58372;SDS011;44177;43.356;27.672;2023-06-14T07:23:50;0.80;;;0.80;;
58372;SDS011;44177;43.356;27.672;2023-06-14T07:26:16;0.80;;;0.80;;
58372;SDS011;44177;43.356;27.672;2023-06-14T07:28:41;0.90;;;0.90;;
58372;SDS011;44177;43.356;27.672;2023-06-14T07:31:10;0.80;;;0.80;;
58372;SDS011;44177;43.356;27.672;2023-06-14T07:33:35;0.93;;;0.90;;
58372;SDS011;44177;43.356;27.672;2023-06-14T07:36:01;0.90;;;0.90;;
58372;SDS011;44177;43.356;27.672;2023-06-14T07:38:26;0.80;;;0.80;;
58372;SDS011;44177;43.356;27.672;2023-06-14T07:40:52;0.88;;;0.88;;
58372;SDS011;44177;43.356;27.672;2023-06-14T07:43:17;1.15;;;0.82;;
58372;SDS011;44177;43.356;27.672;2023-06-14T07:45:43;0.98;;;0.95;;
58372;SDS011;44177;43.356;27.672;2023-06-14T07:48:08;1.17;;;1.08;;
58372;SDS011;44177;43.356;27.672;2023-06-14T07:50:35;1.27;;;1.17;;
58372;SDS011;44177;43.356;27.672;2023-06-14T07:53:01;0.73;;;0.70;;
58372;SDS011;44177;43.356;27.672;2023-06-14T07:55:26;0.85;;;0.85;;
58372;SDS011;44177;43.356;27.672;2023-06-14T07:57:54;1.02;;;0.93;;
58372;SDS011;44177;43.356;27.672;2023-06-14T08:00:19;1.20;;;1.10;;
58372;SDS011;44177;43.356;27.672;2023-06-14T08:02:45;0.80;;;0.80;;
58372;SDS011;44177;43.356;27.672;2023-06-14T08:05:11;0.68;;;0.68;;
58372;SDS011;44177;43.356;27.672;2023-06-14T08:07:37;1.33;;;1.23;;
58372;SDS011;44177;43.356;27.672;2023-06-14T08:10:04;0.98;;;0.77;;
58372;SDS011;44177;43.356;27.672;2023-06-14T08:12:31;1.02;;;0.93;;
58372;SDS011;44177;43.356;27.672;2023-06-14T08:14:57;1.20;;;1.02;;
58372;SDS011;44177;43.356;27.672;2023-06-14T08:17:22;1.20;;;1.10;;
58372;SDS011;44177;43.356;27.672;2023-06-14T08:19:48;0.80;;;0.75;;
58372;SDS011;44177;43.356;27.672;2023-06-14T08:22:13;1.55;;;1.20;;
58372;SDS011;44177;43.356;27.672;2023-06-14T08:24:39;1.00;;;0.90;;
58372;SDS011;44177;43.356;27.672;2023-06-14T08:27:05;1.13;;;1.02;;
58372;SDS011;44177;43.356;27.672;2023-06-14T08:29:32;1.60;;;1.08;;
58372;SDS011;44177;43.356;27.672;2023-06-14T08:31:57;1.15;;;1.00;;
58372;SDS011;44177;43.356;27.672;2023-06-14T08:34:23;0.90;;;0.90;;
58372;SDS011;44177;43.356;27.672;2023-06-14T08:36:51;0.90;;;0.90;;
58372;SDS011;44177;43.356;27.672;2023-06-14T08:39:17;0.98;;;0.98;;
58372;SDS011;44177;43.356;27.672;2023-06-14T08:41:46;1.08;;;1.00;;
58372;SDS011;44177;43.356;27.672;2023-06-14T08:44:17;1.08;;;0.98;;
58372;SDS011;44177;43.356;27.672;2023-06-14T08:46:43;1.00;;;0.80;;
58372;SDS011;44177;43.356;27.672;2023-06-14T08:49:11;1.10;;;1.02;;
58372;SDS011;44177;43.356;27.672;2023-06-14T08:51:38;1.40;;;0.98;;
58372;SDS011;44177;43.356;27.672;2023-06-14T08:54:05;0.88;;;0.88;;
58372;SDS011;44177;43.356;27.672;2023-06-14T08:56:32;3.03;;;1.08;;
58372;SDS011;44177;43.356;27.672;2023-06-14T08:58:59;1.67;;;1.02;;
58372;SDS011;44177;43.356;27.672;2023-06-14T09:01:32;1.23;;;0.93;;
58372;SDS011;44177;43.356;27.672;2023-06-14T09:03:59;1.58;;;1.15;;
58372;SDS011;44177;43.356;27.672;2023-06-14T09:06:27;1.10;;;1.00;;
58372;SDS011;44177;43.356;27.672;2023-06-14T09:08:53;1.13;;;0.90;;
58372;SDS011;44177;43.356;27.672;2023-06-14T09:11:21;1.08;;;0.98;;
58372;SDS011;44177;43.356;27.672;2023-06-14T09:13:47;1.00;;;0.90;;
58372;SDS011;44177;43.356;27.672;2023-06-14T09:16:13;1.38;;;0.95;;
58372;SDS011;44177;43.356;27.672;2023-06-14T09:18:43;1.40;;;0.82;;
58372;SDS011;44177;43.356;27.672;2023-06-14T09:21:11;1.20;;;1.10;;
58372;SDS011;44177;43.356;27.672;2023-06-14T09:23:40;0.80;;;0.80;;
58372;SDS011;44177;43.356;27.672;2023-06-14T09:26:11;0.88;;;0.88;;
58372;SDS011;44177;43.356;27.672;2023-06-14T09:28:41;0.90;;;0.90;;
58372;SDS011;44177;43.356;27.672;2023-06-14T09:31:12;2.05;;;1.00;;
58372;SDS011;44177;43.356;27.672;2023-06-14T09:33:38;1.27;;;0.95;;
58372;SDS011;44177;43.356;27.672;2023-06-14T09:36:04;0.93;;;0.93;;
58372;SDS011;44177;43.356;27.672;2023-06-14T09:38:34;1.20;;;1.10;;
58372;SDS011;44177;43.356;27.672;2023-06-14T09:41:00;1.02;;;0.90;;
58372;SDS011;44177;43.356;27.672;2023-06-14T09:43:28;0.77;;;0.77;;
58372;SDS011;44177;43.356;27.672;2023-06-14T09:45:54;1.27;;;1.00;;
58372;SDS011;44177;43.356;27.672;2023-06-14T09:48:20;0.80;;;0.80;;
58372;SDS011;44177;43.356;27.672;2023-06-14T09:50:46;1.00;;;0.80;;
58372;SDS011;44177;43.356;27.672;2023-06-14T09:53:13;0.80;;;0.80;;
58372;SDS011;44177;43.356;27.672;2023-06-14T09:55:40;1.10;;;1.00;;
58372;SDS011;44177;43.356;27.672;2023-06-14T09:58:07;0.65;;;0.65;;
58372;SDS011;44177;43.356;27.672;2023-06-14T10:00:35;0.80;;;0.80;;
58372;SDS011;44177;43.356;27.672;2023-06-14T10:03:06;0.68;;;0.65;;
58372;SDS011;44177;43.356;27.672;2023-06-14T10:05:46;1.10;;;1.00;;
58372;SDS011;44177;43.356;27.672;2023-06-14T10:08:18;0.95;;;0.95;;
58372;SDS011;44177;43.356;27.672;2023-06-14T10:10:45;0.75;;;0.75;;
58372;SDS011;44177;43.356;27.672;2023-06-14T10:13:11;2.78;;;0.80;;
58372;SDS011;44177;43.356;27.672;2023-06-14T10:15:55;1.42;;;0.93;;
58372;SDS011;44177;43.356;27.672;2023-06-14T10:18:35;0.70;;;0.70;;
58372;SDS011;44177;43.356;27.672;2023-06-14T10:23:49;0.90;;;0.90;;
58372;SDS011;44177;43.356;27.672;2023-06-14T10:26:21;2.38;;;1.00;;
58372;SDS011;44177;43.356;27.672;2023-06-14T10:28:58;1.45;;;0.73;;
58372;SDS011;44177;43.356;27.672;2023-06-14T10:31:40;0.80;;;0.80;;
58372;SDS011;44177;43.356;27.672;2023-06-14T10:34:07;2.10;;;0.80;;
58372;SDS011;44177;43.356;27.672;2023-06-14T10:36:32;0.93;;;0.93;;
58372;SDS011;44177;43.356;27.672;2023-06-14T10:41:37;1.15;;;1.15;;
58372;SDS011;44177;43.356;27.672;2023-06-14T10:44:46;0.73;;;0.73;;
58372;SDS011;44177;43.356;27.672;2023-06-14T10:46:55;0.80;;;0.80;;
58372;SDS011;44177;43.356;27.672;2023-06-14T10:49:39;1.00;;;1.00;;
58372;SDS011;44177;43.356;27.672;2023-06-14T10:52:14;0.75;;;0.75;;
58372;SDS011;44177;43.356;27.672;2023-06-14T10:57:29;0.80;;;0.80;;
58372;SDS011;44177;43.356;27.672;2023-06-14T10:59:59;0.73;;;0.55;;
58372;SDS011;44177;43.356;27.672;2023-06-14T11:05:06;0.82;;;0.70;;
58372;SDS011;44177;43.356;27.672;2023-06-14T11:10:38;0.80;;;0.80;;
58372;SDS011;44177;43.356;27.672;2023-06-14T11:13:05;1.27;;;0.60;;
58372;SDS011;44177;43.356;27.672;2023-06-14T11:15:34;2.17;;;0.75;;
58372;SDS011;44177;43.356;27.672;2023-06-14T11:18:02;0.55;;;0.55;;
58372;SDS011;44177;43.356;27.672;2023-06-14T11:20:29;0.60;;;0.60;;
58372;SDS011;44177;43.356;27.672;2023-06-14T11:22:56;0.85;;;0.70;;
58372;SDS011;44177;43.356;27.672;2023-06-14T11:25:21;0.90;;;0.90;;
58372;SDS011;44177;43.356;27.672;2023-06-14T11:27:48;1.13;;;0.70;;
58372;SDS011;44177;43.356;27.672;2023-06-14T11:30:15;0.63;;;0.63;;
58372;SDS011;44177;43.356;27.672;2023-06-14T11:32:41;0.80;;;0.80;;
58372;SDS011;44177;43.356;27.672;2023-06-14T11:35:07;0.90;;;0.90;;
58372;SDS011;44177;43.356;27.672;2023-06-14T11:37:35;0.50;;;0.50;;
58372;SDS011;44177;43.356;27.672;2023-06-14T11:40:02;0.68;;;0.68;;
58372;SDS011;44177;43.356;27.672;2023-06-14T11:42:33;1.05;;;0.90;;
58372;SDS011;44177;43.356;27.672;2023-06-14T11:44:59;0.60;;;0.60;;
58372;SDS011;44177;43.356;27.672;2023-06-14T11:47:33;0.85;;;0.85;;
58372;SDS011;44177;43.356;27.672;2023-06-14T11:49:59;0.60;;;0.60;;
58372;SDS011;44177;43.356;27.672;2023-06-14T11:52:28;0.70;;;0.70;;
58372;SDS011;44177;43.356;27.672;2023-06-14T11:54:53;0.65;;;0.65;;
58372;SDS011;44177;43.356;27.672;2023-06-14T11:57:20;0.60;;;0.60;;
58372;SDS011;44177;43.356;27.672;2023-06-14T11:59:46;0.70;;;0.70;;
58372;SDS011;44177;43.356;27.672;2023-06-14T12:02:17;1.00;;;0.90;;
58372;SDS011;44177;43.356;27.672;2023-06-14T12:04:47;0.60;;;0.60;;
58372;SDS011;44177;43.356;27.672;2023-06-14T12:07:14;0.73;;;0.73;;
58372;SDS011;44177;43.356;27.672;2023-06-14T12:12:24;0.80;;;0.80;;
58372;SDS011;44177;43.356;27.672;2023-06-14T12:14:50;0.73;;;0.73;;
58372;SDS011;44177;43.356;27.672;2023-06-14T12:17:17;0.98;;;0.70;;
58372;SDS011;44177;43.356;27.672;2023-06-14T12:19:43;0.63;;;0.63;;
58372;SDS011;44177;43.356;27.672;2023-06-14T12:22:10;0.82;;;0.82;;
58372;SDS011;44177;43.356;27.672;2023-06-14T12:24:36;0.80;;;0.80;;
58372;SDS011;44177;43.356;27.672;2023-06-14T12:27:03;0.80;;;0.80;;
58372;SDS011;44177;43.356;27.672;2023-06-14T12:29:29;0.70;;;0.70;;
58372;SDS011;44177;43.356;27.672;2023-06-14T12:31:55;2.40;;;0.80;;
58372;SDS011;44177;43.356;27.672;2023-06-14T12:34:24;0.68;;;0.68;;
58372;SDS011;44177;43.356;27.672;2023-06-14T12:36:52;0.60;;;0.60;;
58372;SDS011;44177;43.356;27.672;2023-06-14T12:39:18;0.60;;;0.60;;
58372;SDS011;44177;43.356;27.672;2023-06-14T12:41:43;0.57;;;0.57;;
58372;SDS011;44177;43.356;27.672;2023-06-14T12:44:10;0.60;;;0.50;;
58372;SDS011;44177;43.356;27.672;2023-06-14T12:46:36;0.60;;;0.60;;
58372;SDS011;44177;43.356;27.672;2023-06-14T12:49:02;0.70;;;0.70;;
58372;SDS011;44177;43.356;27.672;2023-06-14T12:51:27;0.70;;;0.70;;
58372;SDS011;44177;43.356;27.672;2023-06-14T12:53:53;0.68;;;0.68;;
58372;SDS011;44177;43.356;27.672;2023-06-14T12:56:18;0.60;;;0.60;;
58372;SDS011;44177;43.356;27.672;2023-06-14T12:58:44;0.55;;;0.55;;
58372;SDS011;44177;43.356;27.672;2023-06-14T13:01:09;0.50;;;0.50;;
58372;SDS011;44177;43.356;27.672;2023-06-14T13:03:35;0.60;;;0.60;;
58372;SDS011;44177;43.356;27.672;2023-06-14T13:06:01;0.63;;;0.63;;
58372;SDS011;44177;43.356;27.672;2023-06-14T13:08:28;0.60;;;0.60;;
58372;SDS011;44177;43.356;27.672;2023-06-14T13:10:53;0.68;;;0.68;;
58372;SDS011;44177;43.356;27.672;2023-06-14T13:13:19;0.85;;;0.70;;
58372;SDS011;44177;43.356;27.672;2023-06-14T13:15:45;0.80;;;0.80;;
58372;SDS011;44177;43.356;27.672;2023-06-14T13:18:14;1.35;;;1.25;;
58372;SDS011;44177;43.356;27.672;2023-06-14T13:20:40;0.60;;;0.60;;
58372;SDS011;44177;43.356;27.672;2023-06-14T13:23:07;0.80;;;0.80;;
58372;SDS011;44177;43.356;27.672;2023-06-14T13:25:36;0.88;;;0.80;;
58372;SDS011;44177;43.356;27.672;2023-06-14T13:28:02;1.05;;;0.95;;
58372;SDS011;44177;43.356;27.672;2023-06-14T13:30:28;1.10;;;0.85;;
58372;SDS011;44177;43.356;27.672;2023-06-14T13:32:54;0.93;;;0.85;;
58372;SDS011;44177;43.356;27.672;2023-06-14T13:35:20;0.80;;;0.80;;
58372;SDS011;44177;43.356;27.672;2023-06-14T13:37:46;0.60;;;0.60;;
58372;SDS011;44177;43.356;27.672;2023-06-14T13:40:12;1.02;;;0.93;;
58372;SDS011;44177;43.356;27.672;2023-06-14T13:42:37;0.85;;;0.75;;
58372;SDS011;44177;43.356;27.672;2023-06-14T13:45:03;0.60;;;0.60;;
58372;SDS011;44177;43.356;27.672;2023-06-14T13:47:29;0.75;;;0.57;;
58372;SDS011;44177;43.356;27.672;2023-06-14T13:49:56;0.45;;;0.45;;
58372;SDS011;44177;43.356;27.672;2023-06-14T13:52:21;0.68;;;0.60;;
58372;SDS011;44177;43.356;27.672;2023-06-14T13:54:47;1.00;;;0.70;;
58372;SDS011;44177;43.356;27.672;2023-06-14T13:57:13;0.65;;;0.65;;
58372;SDS011;44177;43.356;27.672;2023-06-14T13:59:39;0.77;;;0.70;;
58372;SDS011;44177;43.356;27.672;2023-06-14T14:02:05;0.70;;;0.70;;
58372;SDS011;44177;43.356;27.672;2023-06-14T14:04:32;0.70;;;0.70;;
58372;SDS011;44177;43.356;27.672;2023-06-14T14:06:59;0.80;;;0.73;;
58372;SDS011;44177;43.356;27.672;2023-06-14T14:09:24;2.38;;;0.73;;
58372;SDS011;44177;43.356;27.672;2023-06-14T14:11:50;1.05;;;0.90;;
58372;SDS011;44177;43.356;27.672;2023-06-14T14:14:15;1.05;;;0.80;;
58372;SDS011;44177;43.356;27.672;2023-06-14T14:16:41;0.68;;;0.68;;
58372;SDS011;44177;43.356;27.672;2023-06-14T14:19:06;1.00;;;0.90;;
58372;SDS011;44177;43.356;27.672;2023-06-14T14:21:32;0.75;;;0.75;;
58372;SDS011;44177;43.356;27.672;2023-06-14T14:23:58;0.80;;;0.80;;
58372;SDS011;44177;43.356;27.672;2023-06-14T14:26:23;0.65;;;0.63;;
58372;SDS011;44177;43.356;27.672;2023-06-14T14:28:50;0.80;;;0.80;;
58372;SDS011;44177;43.356;27.672;2023-06-14T14:31:16;0.85;;;0.80;;
58372;SDS011;44177;43.356;27.672;2023-06-14T14:33:41;0.70;;;0.70;;
58372;SDS011;44177;43.356;27.672;2023-06-14T14:36:07;0.70;;;0.57;;
58372;SDS011;44177;43.356;27.672;2023-06-14T14:38:32;1.00;;;0.90;;
58372;SDS011;44177;43.356;27.672;2023-06-14T14:40:58;0.95;;;0.65;;
58372;SDS011;44177;43.356;27.672;2023-06-14T14:43:24;0.60;;;0.60;;
58372;SDS011;44177;43.356;27.672;2023-06-14T14:45:49;0.70;;;0.70;;
58372;SDS011;44177;43.356;27.672;2023-06-14T14:48:15;0.93;;;0.70;;
58372;SDS011;44177;43.356;27.672;2023-06-14T14:50:40;0.60;;;0.60;;
58372;SDS011;44177;43.356;27.672;2023-06-14T14:53:06;0.70;;;0.70;;
58372;SDS011;44177;43.356;27.672;2023-06-14T14:55:32;0.70;;;0.70;;